createdAt,value
2019-03-30T00:02:07.497Z,102.00
2019-03-30T00:04:35.222Z,101.57
2019-03-30T00:07:02.895Z,91.00
2019-03-30T00:09:30.596Z,88.50
2019-03-30T00:11:58.340Z,87.87
2019-03-30T00:14:25.983Z,89.40
2019-03-30T00:16:53.677Z,91.40
2019-03-30T00:19:34.364Z,89.60
2019-03-30T00:21:50.624Z,84.03
2019-03-30T00:24:18.392Z,84.40
2019-03-30T00:26:46.156Z,95.70
2019-03-30T00:29:13.805Z,95.13
2019-03-30T00:31:41.485Z,98.30
2019-03-30T00:34:09.147Z,97.07
2019-03-30T00:36:36.796Z,94.10
2019-03-30T00:39:05.780Z,101.27
2019-03-30T00:41:33.460Z,103.27
2019-03-30T00:44:01.198Z,99.07
2019-03-30T00:46:28.863Z,102.27
2019-03-30T00:48:56.507Z,101.00
2019-03-30T00:51:24.184Z,98.70
2019-03-30T00:53:51.864Z,95.67
2019-03-30T00:56:19.570Z,100.70
2019-03-30T00:58:47.301Z,97.80
2019-03-30T01:01:14.911Z,95.17
2019-03-30T01:03:42.634Z,102.87
2019-03-30T01:06:10.385Z,108.00
2019-03-30T01:08:38.064Z,99.07
2019-03-30T01:11:05.766Z,98.20
2019-03-30T01:13:33.434Z,94.57
2019-03-30T01:16:01.121Z,92.43
2019-03-30T01:18:31.599Z,98.43
2019-03-30T01:20:59.320Z,103.80
2019-03-30T01:23:27.360Z,87.33
2019-03-30T01:25:55.035Z,97.23
2019-03-30T01:28:22.708Z,93.60
2019-03-30T01:30:50.398Z,93.53
2019-03-30T01:33:18.114Z,91.93
2019-03-30T01:35:45.812Z,88.33
2019-03-30T01:38:13.534Z,93.93
2019-03-30T01:40:41.265Z,100.07
2019-03-30T01:43:09.038Z,94.70
2019-03-30T01:45:36.802Z,98.37
2019-03-30T01:48:05.376Z,82.53
2019-03-30T01:50:33.129Z,92.93
2019-03-30T01:53:00.790Z,86.20
2019-03-30T01:55:28.453Z,95.67
2019-03-30T01:57:56.306Z,94.03
2019-03-30T02:00:23.973Z,84.20
2019-03-30T02:02:51.678Z,83.03
2019-03-30T02:05:19.419Z,85.27
2019-03-30T02:07:47.102Z,90.53
2019-03-30T02:10:16.321Z,90.03
2019-03-30T02:12:44.017Z,85.67
2019-03-30T02:15:11.818Z,90.00
2019-03-30T02:17:39.547Z,82.97
2019-03-30T02:20:08.032Z,84.80
2019-03-30T02:22:35.707Z,80.97
2019-03-30T02:25:04.392Z,83.97
2019-03-30T02:27:32.086Z,76.27
2019-03-30T02:29:59.792Z,81.03
2019-03-30T02:32:27.490Z,80.47
2019-03-30T02:34:55.166Z,81.87
2019-03-30T02:37:22.836Z,77.00
2019-03-30T02:39:50.599Z,77.40
2019-03-30T02:42:18.294Z,80.17
2019-03-30T02:44:46.498Z,81.33
2019-03-30T02:47:14.347Z,69.57
2019-03-30T02:49:42.064Z,71.10
2019-03-30T02:52:09.802Z,71.53
2019-03-30T02:54:37.525Z,70.90
2019-03-30T02:57:05.197Z,69.17
2019-03-30T02:59:32.873Z,73.63
2019-03-30T03:02:00.543Z,75.90
2019-03-30T03:04:28.196Z,75.13
2019-03-30T03:06:55.978Z,71.60
2019-03-30T03:09:23.671Z,76.33
2019-03-30T03:11:51.349Z,75.67
2019-03-30T03:14:19.061Z,71.73
2019-03-30T03:16:46.737Z,75.20
2019-03-30T03:19:14.515Z,76.77
2019-03-30T03:21:42.290Z,73.93
2019-03-30T03:24:10.137Z,70.60
2019-03-30T03:26:37.808Z,76.87
2019-03-30T03:29:05.522Z,75.17
2019-03-30T03:31:33.219Z,71.07
2019-03-30T03:34:00.916Z,73.20
2019-03-30T03:36:28.550Z,69.23
2019-03-30T03:38:56.367Z,68.07
2019-03-30T03:41:24.069Z,71.73
2019-03-30T03:43:51.787Z,71.83
2019-03-30T03:46:19.458Z,71.03
2019-03-30T03:48:47.225Z,73.33
2019-03-30T03:51:25.575Z,72.60
2019-03-30T03:53:45.024Z,75.30
2019-03-30T03:56:14.451Z,78.03
2019-03-30T03:58:43.301Z,75.10
2019-03-30T04:01:12.421Z,75.93
2019-03-30T04:03:41.290Z,79.63
2019-03-30T04:06:09.024Z,79.30
2019-03-30T04:08:36.742Z,77.10
2019-03-30T04:11:04.518Z,69.57
2019-03-30T04:13:32.205Z,72.23
2019-03-30T04:15:59.913Z,68.03
2019-03-30T04:18:27.595Z,69.90
2019-03-30T04:20:55.260Z,84.97
2019-03-30T04:23:23.013Z,79.73
2019-03-30T04:25:50.707Z,82.77
2019-03-30T04:28:18.368Z,81.40
2019-03-30T04:30:46.182Z,69.70
2019-03-30T04:33:13.873Z,76.00
2019-03-30T04:35:41.538Z,84.40
2019-03-30T04:38:09.227Z,76.07
2019-03-30T04:40:36.901Z,80.50
2019-03-30T04:43:04.541Z,78.80
2019-03-30T04:45:32.333Z,82.10
2019-03-30T04:48:00.103Z,79.33
2019-03-30T04:50:27.742Z,83.27
2019-03-30T04:52:55.486Z,81.97
2019-03-30T04:55:23.219Z,111.57
2019-03-30T04:57:50.887Z,115.30
2019-03-30T05:00:18.561Z,121.47
2019-03-30T05:02:46.240Z,106.63
2019-03-30T05:05:13.930Z,104.93
2019-03-30T05:07:41.648Z,94.93
2019-03-30T05:10:09.540Z,102.03
2019-03-30T05:12:37.263Z,119.70
2019-03-30T05:15:06.068Z,106.17
2019-03-30T05:17:46.842Z,127.83
2019-03-30T05:20:03.088Z,110.17
2019-03-30T05:22:30.736Z,120.47
2019-03-30T05:24:58.447Z,204.80
2019-03-30T05:27:26.145Z,142.37
2019-03-30T05:29:53.818Z,150.30
2019-03-30T05:32:21.537Z,158.40
2019-03-30T05:34:49.179Z,123.20
2019-03-30T05:37:16.865Z,117.33
2019-03-30T05:39:44.588Z,90.30
2019-03-30T05:42:12.342Z,100.47
2019-03-30T05:44:40.010Z,121.40
2019-03-30T05:47:07.947Z,128.73
2019-03-30T05:49:35.590Z,123.17
2019-03-30T05:52:03.269Z,97.53
2019-03-30T05:54:30.988Z,101.37
2019-03-30T05:56:58.702Z,96.57
2019-03-30T05:59:26.332Z,98.60
2019-03-30T06:01:54.000Z,99.17
2019-03-30T06:04:21.709Z,108.57
2019-03-30T06:06:49.428Z,111.50
2019-03-30T06:09:17.112Z,97.53
2019-03-30T06:11:44.830Z,115.67
2019-03-30T06:14:12.500Z,109.60
2019-03-30T06:16:40.347Z,111.07
2019-03-30T06:19:08.050Z,116.47
2019-03-30T06:21:35.765Z,110.63
2019-03-30T06:24:03.412Z,122.40
2019-03-30T06:26:31.130Z,119.23
2019-03-30T06:28:58.832Z,118.97
2019-03-30T06:31:26.543Z,114.67
2019-03-30T06:33:54.260Z,127.90
2019-03-30T06:36:21.964Z,117.43
2019-03-30T06:38:49.677Z,120.80
2019-03-30T06:41:17.415Z,124.20
2019-03-30T06:43:45.101Z,127.80
2019-03-30T06:46:12.768Z,127.73
2019-03-30T06:48:40.460Z,124.67
2019-03-30T06:51:08.159Z,135.70
2019-03-30T06:53:35.837Z,128.73
2019-03-30T06:56:03.513Z,128.57
2019-03-30T06:58:31.331Z,134.37
2019-03-30T07:00:59.142Z,131.50
2019-03-30T07:03:26.913Z,131.07
2019-03-30T07:05:55.085Z,126.63
2019-03-30T07:08:23.302Z,125.93
2019-03-30T07:10:51.004Z,130.83
2019-03-30T07:13:18.676Z,128.80
2019-03-30T07:15:47.367Z,122.57
2019-03-30T07:18:15.842Z,126.67
2019-03-30T07:20:43.555Z,121.20
2019-03-30T07:23:12.756Z,128.17
2019-03-30T07:25:41.048Z,118.10
2019-03-30T07:28:08.720Z,120.43
2019-03-30T07:30:36.396Z,119.30
2019-03-30T07:33:04.046Z,122.40
2019-03-30T07:35:31.818Z,124.47
2019-03-30T07:37:59.456Z,119.57
2019-03-30T07:40:27.208Z,109.47
2019-03-30T07:42:54.941Z,100.67
2019-03-30T07:45:22.623Z,104.87
2019-03-30T07:47:50.285Z,109.30
2019-03-30T07:50:18.109Z,95.77
2019-03-30T07:52:45.782Z,90.07
2019-03-30T07:55:13.557Z,84.97
2019-03-30T07:57:41.259Z,81.70
2019-03-30T08:00:09.078Z,79.27
2019-03-30T08:02:36.716Z,85.17
2019-03-30T08:05:05.860Z,80.73
2019-03-30T08:07:33.574Z,83.67
2019-03-30T08:10:01.235Z,82.27
2019-03-30T08:12:28.926Z,75.53
2019-03-30T08:14:56.616Z,77.40
2019-03-30T08:17:24.364Z,82.17
2019-03-30T08:19:52.110Z,70.30
2019-03-30T08:22:19.749Z,74.40
2019-03-30T08:24:47.465Z,68.53
2019-03-30T08:27:15.159Z,69.37
2019-03-30T08:29:42.846Z,73.83
2019-03-30T08:32:10.547Z,67.93
2019-03-30T08:34:38.381Z,64.07
2019-03-30T08:37:06.030Z,61.23
2019-03-30T08:39:33.742Z,48.60
2019-03-30T08:42:01.433Z,57.83
2019-03-30T08:44:29.178Z,62.07
2019-03-30T08:46:56.876Z,67.33
2019-03-30T08:49:24.557Z,53.03
2019-03-30T08:51:52.233Z,54.30
2019-03-30T08:54:19.949Z,60.03
2019-03-30T08:56:47.625Z,52.73
2019-03-30T08:59:15.327Z,56.50
2019-03-30T09:01:43.055Z,50.77
2019-03-30T09:04:10.754Z,49.27
2019-03-30T09:06:38.475Z,55.27
2019-03-30T09:09:06.745Z,50.17
2019-03-30T09:11:34.424Z,57.83
2019-03-30T09:14:02.122Z,51.33
2019-03-30T09:16:29.797Z,53.03
2019-03-30T09:18:57.498Z,55.17
2019-03-30T09:21:25.255Z,54.30
2019-03-30T09:23:52.961Z,53.50
2019-03-30T09:26:20.704Z,48.73
2019-03-30T09:28:48.340Z,53.77
2019-03-30T09:31:16.026Z,58.87
2019-03-30T09:33:43.778Z,54.90
2019-03-30T09:36:11.442Z,53.23
2019-03-30T09:38:39.157Z,57.73
2019-03-30T09:41:06.883Z,55.93
2019-03-30T09:43:37.412Z,50.50
2019-03-30T09:46:04.060Z,47.47
2019-03-30T09:48:31.725Z,42.50
2019-03-30T09:50:59.462Z,51.10
2019-03-30T09:53:27.157Z,40.93
2019-03-30T09:55:54.822Z,45.20
2019-03-30T09:58:22.919Z,44.45
2019-03-30T10:00:50.581Z,43.00
2019-03-30T10:03:18.308Z,40.53
2019-03-30T10:05:46.023Z,39.70
2019-03-30T10:08:13.718Z,39.57
2019-03-30T10:10:41.380Z,42.70
2019-03-30T10:13:09.095Z,42.20
2019-03-30T10:15:36.813Z,39.47
2019-03-30T10:18:05.469Z,39.95
2019-03-30T10:20:33.205Z,43.33
2019-03-30T10:23:00.934Z,39.07
2019-03-30T10:25:28.624Z,46.03
2019-03-30T10:27:56.398Z,43.77
2019-03-30T10:30:24.154Z,40.67
2019-03-30T10:32:52.021Z,40.93
2019-03-30T10:35:19.687Z,37.03
2019-03-30T10:37:47.352Z,32.33
2019-03-30T10:40:15.041Z,36.23
2019-03-30T10:42:42.764Z,39.70
2019-03-30T10:45:10.633Z,36.43
2019-03-30T10:47:38.391Z,40.50
2019-03-30T10:50:06.695Z,35.63
2019-03-30T10:52:34.596Z,42.60
2019-03-30T10:55:02.230Z,40.53
2019-03-30T10:57:29.956Z,42.30
2019-03-30T10:59:57.679Z,37.27
2019-03-30T11:02:25.431Z,37.83
2019-03-30T11:04:53.135Z,40.20
2019-03-30T11:07:20.807Z,41.23
2019-03-30T11:09:49.699Z,39.37
2019-03-30T11:12:17.718Z,39.53
2019-03-30T11:14:45.579Z,38.67
2019-03-30T11:17:15.285Z,38.73
2019-03-30T11:19:43.056Z,36.47
2019-03-30T11:22:10.804Z,34.90
2019-03-30T11:24:38.582Z,40.13
2019-03-30T11:27:06.350Z,36.30
2019-03-30T11:29:34.120Z,38.40
2019-03-30T11:32:01.824Z,37.40
2019-03-30T11:34:29.653Z,37.80
2019-03-30T11:36:57.520Z,39.73
2019-03-30T11:39:25.484Z,38.27
2019-03-30T11:41:53.257Z,37.30
2019-03-30T11:44:21.125Z,39.93
2019-03-30T11:46:48.809Z,44.73
2019-03-30T11:49:16.658Z,43.70
2019-03-30T11:51:44.405Z,36.20
2019-03-30T11:54:12.049Z,38.47
2019-03-30T11:56:39.951Z,40.17
2019-03-30T11:59:07.709Z,44.60
2019-03-30T12:01:35.587Z,40.80
2019-03-30T12:04:03.335Z,40.50
2019-03-30T12:06:31.216Z,48.97
2019-03-30T12:08:59.089Z,46.50
2019-03-30T12:11:26.851Z,48.97
2019-03-30T12:13:54.725Z,50.93
2019-03-30T12:16:22.481Z,41.37
2019-03-30T12:18:50.367Z,45.20
2019-03-30T12:21:18.424Z,42.53
2019-03-30T12:23:46.191Z,38.93
2019-03-30T12:26:14.066Z,41.90
2019-03-30T12:28:42.777Z,47.00
2019-03-30T12:31:10.530Z,43.10
2019-03-30T12:33:38.384Z,41.73
2019-03-30T12:36:06.088Z,40.50
2019-03-30T12:38:34.024Z,45.83
2019-03-30T12:41:01.788Z,29.10
2019-03-30T12:43:29.955Z,28.83
2019-03-30T12:45:57.727Z,29.70
2019-03-30T12:48:25.590Z,31.37
2019-03-30T12:50:53.467Z,30.17
2019-03-30T12:53:21.335Z,25.80
2019-03-30T12:55:49.778Z,29.10
2019-03-30T12:58:17.669Z,32.23
2019-03-30T13:00:45.358Z,27.80
2019-03-30T13:03:13.109Z,27.43
2019-03-30T13:05:40.978Z,29.80
2019-03-30T13:08:08.629Z,27.80
2019-03-30T13:10:36.324Z,24.93
2019-03-30T13:13:04.174Z,27.47
2019-03-30T13:15:32.043Z,21.70
2019-03-30T13:17:59.795Z,26.50
2019-03-30T13:20:27.574Z,29.20
2019-03-30T13:22:55.455Z,23.20
2019-03-30T13:25:23.517Z,26.90
2019-03-30T13:27:53.431Z,33.43
2019-03-30T13:30:20.907Z,31.20
2019-03-30T13:32:48.660Z,30.63
2019-03-30T13:35:16.626Z,38.13
2019-03-30T13:37:44.319Z,29.57
2019-03-30T13:40:11.959Z,29.50
2019-03-30T13:42:39.827Z,30.40
2019-03-30T13:45:07.807Z,30.57
2019-03-30T13:47:35.436Z,33.60
2019-03-30T13:50:03.321Z,33.20
2019-03-30T13:52:31.404Z,29.97
2019-03-30T13:54:59.163Z,33.47
2019-03-30T13:57:26.829Z,29.77
2019-03-30T13:59:54.524Z,35.77
2019-03-30T14:02:22.365Z,33.00
2019-03-30T14:04:52.453Z,32.40
2019-03-30T14:07:19.537Z,31.20
2019-03-30T14:09:47.505Z,30.80
2019-03-30T14:12:15.374Z,24.93
2019-03-30T14:14:43.098Z,27.17
2019-03-30T14:17:10.915Z,23.43
2019-03-30T14:19:38.768Z,22.73
2019-03-30T14:22:06.522Z,22.17
2019-03-30T14:24:34.204Z,29.27
2019-03-30T14:27:01.966Z,23.63
2019-03-30T14:29:29.725Z,25.10
2019-03-30T14:31:57.400Z,29.10
2019-03-30T14:34:25.262Z,24.57
2019-03-30T14:36:53.130Z,20.50
2019-03-30T14:39:20.890Z,23.80
2019-03-30T14:41:48.661Z,24.90
2019-03-30T14:44:16.433Z,24.60
2019-03-30T14:46:44.410Z,22.97
2019-03-30T14:49:12.271Z,22.03
2019-03-30T14:51:40.247Z,26.37
2019-03-30T14:54:08.106Z,24.30
2019-03-30T14:56:45.609Z,27.50
2019-03-30T14:59:10.521Z,28.23
2019-03-30T15:01:34.716Z,22.90
2019-03-30T15:04:02.459Z,25.20
2019-03-30T15:06:30.320Z,26.67
2019-03-30T15:08:58.086Z,23.20
2019-03-30T15:11:25.846Z,20.80
2019-03-30T15:13:53.613Z,19.77
2019-03-30T15:16:21.497Z,25.90
2019-03-30T15:18:49.252Z,33.13
2019-03-30T15:21:17.010Z,41.13
2019-03-30T15:23:44.660Z,30.37
2019-03-30T15:26:13.369Z,30.47
2019-03-30T15:28:42.787Z,36.80
2019-03-30T15:31:10.846Z,30.33
2019-03-30T15:33:38.608Z,26.87
2019-03-30T15:36:06.480Z,22.53
2019-03-30T15:38:34.167Z,18.80
2019-03-30T15:41:02.020Z,21.23
2019-03-30T15:43:38.079Z,19.77
2019-03-30T15:45:59.598Z,24.43
2019-03-30T15:48:28.275Z,23.17
2019-03-30T15:50:56.348Z,23.40
2019-03-30T15:53:24.131Z,21.63
2019-03-30T15:55:51.759Z,22.63
2019-03-30T15:58:19.548Z,21.70
2019-03-30T16:00:47.221Z,20.80
2019-03-30T16:03:14.902Z,19.93
2019-03-30T16:05:42.675Z,24.77
2019-03-30T16:08:10.308Z,21.07
2019-03-30T16:10:37.994Z,25.50
2019-03-30T16:13:05.752Z,23.67
2019-03-30T16:15:33.418Z,22.60
2019-03-30T16:18:01.094Z,25.33
2019-03-30T16:20:28.958Z,21.77
2019-03-30T16:22:56.641Z,20.87
2019-03-30T16:25:24.297Z,19.80
2019-03-30T16:27:52.007Z,22.10
2019-03-30T16:30:19.825Z,20.23
2019-03-30T16:32:47.539Z,28.73
2019-03-30T16:35:15.270Z,24.13
2019-03-30T16:37:42.991Z,21.67
2019-03-30T16:40:11.311Z,21.90
2019-03-30T16:42:39.078Z,25.00
2019-03-30T16:45:07.259Z,151.83
2019-03-30T16:47:34.948Z,22.43
2019-03-30T16:50:02.621Z,18.83
2019-03-30T16:52:30.353Z,16.03
2019-03-30T16:54:58.047Z,15.17
2019-03-30T16:57:25.711Z,18.47
2019-03-30T16:59:53.409Z,16.87
2019-03-30T17:02:21.251Z,18.00
2019-03-30T17:04:48.945Z,14.20
2019-03-30T17:07:17.229Z,14.83
2019-03-30T17:09:44.957Z,16.07
2019-03-30T17:12:12.725Z,19.77
2019-03-30T17:14:40.417Z,20.37
2019-03-30T17:17:08.081Z,17.70
2019-03-30T17:19:35.719Z,16.03
2019-03-30T17:22:03.461Z,23.27
2019-03-30T17:24:31.166Z,36.33
2019-03-30T17:26:58.853Z,82.00
2019-03-30T17:29:26.532Z,96.70
2019-03-30T17:31:54.446Z,99.97
2019-03-30T17:34:22.420Z,69.20
2019-03-30T17:36:50.060Z,60.30
2019-03-30T17:39:17.836Z,36.90
2019-03-30T17:41:45.491Z,29.80
2019-03-30T17:44:13.368Z,34.00
2019-03-30T17:46:41.033Z,30.03
2019-03-30T17:49:08.910Z,29.07
2019-03-30T17:51:36.674Z,33.00
2019-03-30T17:54:05.377Z,31.23
2019-03-30T17:56:33.232Z,34.77
2019-03-30T17:59:01.100Z,44.80
2019-03-30T18:01:28.969Z,43.83
2019-03-30T18:03:56.940Z,46.57
2019-03-30T18:06:24.583Z,35.10
2019-03-30T18:08:52.378Z,35.03
2019-03-30T18:11:20.124Z,38.93
2019-03-30T18:13:47.865Z,69.33
2019-03-30T18:16:15.681Z,68.17
2019-03-30T18:18:43.447Z,56.13
2019-03-30T18:21:11.301Z,58.73
2019-03-30T18:23:39.074Z,60.10
2019-03-30T18:26:06.828Z,47.97
2019-03-30T18:28:34.589Z,55.70
2019-03-30T18:31:02.358Z,54.57
2019-03-30T18:33:30.226Z,62.67
2019-03-30T18:35:58.408Z,62.47
2019-03-30T18:38:26.477Z,79.13
2019-03-30T18:40:54.449Z,87.87
2019-03-30T18:43:22.095Z,95.90
2019-03-30T18:45:50.099Z,103.07
2019-03-30T18:48:18.330Z,122.03
2019-03-30T18:50:46.597Z,139.17
2019-03-30T18:53:14.777Z,95.30
2019-03-30T18:55:42.589Z,93.97
2019-03-30T18:58:10.344Z,71.70
2019-03-30T19:00:38.524Z,74.93
2019-03-30T19:03:06.303Z,98.73
2019-03-30T19:05:34.050Z,113.73
2019-03-30T19:08:02.524Z,129.03
2019-03-30T19:10:30.298Z,100.70
2019-03-30T19:12:58.480Z,112.73
2019-03-30T19:15:26.344Z,83.03
2019-03-30T19:17:54.219Z,114.80
2019-03-30T19:20:21.968Z,104.67
2019-03-30T19:22:49.757Z,96.23
2019-03-30T19:25:17.401Z,114.87
2019-03-30T19:27:45.183Z,97.60
2019-03-30T19:30:13.663Z,85.90
2019-03-30T19:32:41.408Z,113.20
2019-03-30T19:35:09.303Z,152.23
2019-03-30T19:37:37.047Z,157.20
2019-03-30T19:40:06.210Z,146.28
2019-03-30T19:42:33.924Z,183.67
2019-03-30T19:45:01.695Z,160.60
2019-03-30T19:47:29.505Z,139.30
2019-03-30T19:49:57.169Z,157.80
2019-03-30T19:52:38.991Z,193.90
2019-03-30T19:54:54.529Z,114.13
2019-03-30T19:57:22.259Z,123.73
2019-03-30T19:59:53.822Z,129.93
2019-03-30T20:02:21.798Z,138.37
2019-03-30T20:04:49.722Z,133.03
2019-03-30T20:07:17.621Z,130.10
2019-03-30T20:09:45.493Z,161.67
2019-03-30T20:12:13.505Z,202.30
2019-03-30T20:14:41.432Z,197.13
2019-03-30T20:17:09.304Z,199.43
2019-03-30T20:19:37.166Z,194.77
2019-03-30T20:22:05.656Z,196.07
2019-03-30T20:24:33.518Z,177.87
2019-03-30T20:27:01.386Z,176.53
2019-03-30T20:29:29.145Z,157.70
2019-03-30T20:31:56.921Z,163.60
2019-03-30T20:34:24.698Z,170.80
2019-03-30T20:36:52.663Z,178.23
2019-03-30T20:39:20.356Z,185.00
2019-03-30T20:41:48.091Z,187.53
2019-03-30T20:44:15.736Z,193.47
2019-03-30T20:46:43.822Z,178.20
2019-03-30T20:49:11.797Z,186.63
2019-03-30T20:51:39.427Z,154.43
2019-03-30T20:54:07.424Z,153.30
2019-03-30T20:56:35.076Z,207.23
2019-03-30T20:59:02.962Z,187.80
2019-03-30T21:01:30.738Z,164.57
2019-03-30T21:03:58.491Z,236.17
2019-03-30T21:06:26.189Z,171.60
2019-03-30T21:08:53.945Z,187.30
2019-03-30T21:11:21.784Z,199.23
2019-03-30T21:13:49.552Z,183.30
2019-03-30T21:16:17.625Z,185.63
2019-03-30T21:18:45.499Z,182.97
2019-03-30T21:21:13.567Z,170.10
2019-03-30T21:23:41.543Z,167.73
2019-03-30T21:26:09.397Z,153.33
2019-03-30T21:28:37.278Z,107.30
2019-03-30T21:31:05.353Z,79.53
2019-03-30T21:33:33.327Z,69.80
2019-03-30T21:36:01.297Z,65.13
2019-03-30T21:38:29.053Z,67.93
2019-03-30T21:40:56.910Z,71.27
2019-03-30T21:43:24.704Z,82.20
2019-03-30T21:45:52.562Z,122.50
2019-03-30T21:48:20.534Z,116.67
2019-03-30T21:50:48.353Z,128.03
2019-03-30T21:53:16.235Z,111.17
2019-03-30T21:55:44.035Z,107.23
2019-03-30T21:58:11.707Z,96.17
2019-03-30T22:00:39.972Z,96.13
2019-03-30T22:03:07.954Z,102.80
2019-03-30T22:05:35.591Z,101.37
2019-03-30T22:08:04.399Z,104.90
2019-03-30T22:10:32.270Z,117.33
2019-03-30T22:13:00.137Z,128.27
2019-03-30T22:15:28.620Z,121.03
2019-03-30T22:17:56.998Z,118.23
2019-03-30T22:20:24.836Z,114.73
2019-03-30T22:22:52.633Z,103.80
2019-03-30T22:25:20.414Z,104.90
2019-03-30T22:27:48.162Z,99.30
2019-03-30T22:30:24.599Z,68.03
2019-03-30T22:32:45.536Z,73.40
2019-03-30T22:35:13.267Z,77.10
2019-03-30T22:37:41.178Z,70.73
2019-03-30T22:40:09.043Z,70.50
2019-03-30T22:42:36.703Z,71.27
2019-03-30T22:45:06.004Z,84.03
2019-03-30T22:47:34.287Z,93.77
2019-03-30T22:50:02.163Z,102.20
2019-03-30T22:52:29.912Z,96.33
2019-03-30T22:54:57.689Z,93.60
2019-03-30T22:57:25.455Z,82.43
2019-03-30T22:59:53.321Z,84.60
2019-03-30T23:02:22.070Z,86.37
2019-03-30T23:04:49.877Z,99.00
2019-03-30T23:07:17.851Z,101.20
2019-03-30T23:09:45.627Z,107.37
2019-03-30T23:12:13.587Z,107.07
2019-03-30T23:14:41.559Z,120.03
2019-03-30T23:17:09.377Z,107.57
2019-03-30T23:19:37.069Z,110.07
2019-03-30T23:22:05.449Z,102.35
2019-03-30T23:24:33.243Z,98.00
2019-03-30T23:27:00.991Z,85.43
2019-03-30T23:29:28.757Z,78.47
2019-03-30T23:31:56.538Z,74.20
2019-03-30T23:34:24.293Z,77.33
2019-03-30T23:36:52.167Z,75.60
2019-03-30T23:39:20.026Z,77.90
2019-03-30T23:41:47.799Z,78.27
2019-03-30T23:44:15.577Z,71.77
2019-03-30T23:46:43.434Z,71.63
2019-03-30T23:49:11.189Z,79.73
2019-03-30T23:51:38.974Z,73.03
2019-03-30T23:54:08.268Z,74.10
2019-03-30T23:56:36.135Z,72.37
2019-03-30T23:59:03.900Z,82.70
